sensor_id;sensor_type;location;lat;lon;timestamp;temperature;humidity
36424;DHT22;22458;45.328;9.514;2023-01-15T00:01:19;9.80;90.00
36424;DHT22;22458;45.328;9.514;2023-01-15T00:03:45;9.70;90.10
36424;DHT22;22458;45.328;9.514;2023-01-15T00:06:11;9.80;90.20
36424;DHT22;22458;45.328;9.514;2023-01-15T00:08:37;9.80;90.10
36424;DHT22;22458;45.328;9.514;2023-01-15T00:11:03;9.90;90.10
36424;DHT22;22458;45.328;9.514;2023-01-15T00:16:20;9.80;90.10
36424;DHT22;22458;45.328;9.514;2023-01-15T00:18:51;9.80;90.10
36424;DHT22;22458;45.328;9.514;2023-01-15T00:21:17;9.80;90.20
36424;DHT22;22458;45.328;9.514;2023-01-15T00:23:44;9.80;90.20
36424;DHT22;22458;45.328;9.514;2023-01-15T00:26:30;9.70;90.30
36424;DHT22;22458;45.328;9.514;2023-01-15T00:29:15;9.60;90.50
36424;DHT22;22458;45.328;9.514;2023-01-15T00:31:42;9.50;90.60
36424;DHT22;22458;45.328;9.514;2023-01-15T00:34:09;9.40;90.70
36424;DHT22;22458;45.328;9.514;2023-01-15T00:36:34;9.40;90.80
36424;DHT22;22458;45.328;9.514;2023-01-15T00:39:03;9.40;90.80
36424;DHT22;22458;45.328;9.514;2023-01-15T00:41:29;9.40;90.80
36424;DHT22;22458;45.328;9.514;2023-01-15T00:43:54;9.50;90.80
36424;DHT22;22458;45.328;9.514;2023-01-15T00:46:21;9.60;90.60
36424;DHT22;22458;45.328;9.514;2023-01-15T00:48:48;9.70;90.60
36424;DHT22;22458;45.328;9.514;2023-01-15T00:51:14;9.60;90.50
36424;DHT22;22458;45.328;9.514;2023-01-15T00:53:40;9.60;90.60
36424;DHT22;22458;45.328;9.514;2023-01-15T00:56:05;9.40;90.80
36424;DHT22;22458;45.328;9.514;2023-01-15T00:58:31;9.30;90.90
36424;DHT22;22458;45.328;9.514;2023-01-15T01:00:58;9.30;91.00
36424;DHT22;22458;45.328;9.514;2023-01-15T01:03:25;9.30;91.00
36424;DHT22;22458;45.328;9.514;2023-01-15T01:05:51;9.30;91.00
36424;DHT22;22458;45.328;9.514;2023-01-15T01:08:37;9.20;91.10
36424;DHT22;22458;45.328;9.514;2023-01-15T01:11:06;9.20;91.10
36424;DHT22;22458;45.328;9.514;2023-01-15T01:13:33;9.30;91.10
36424;DHT22;22458;45.328;9.514;2023-01-15T01:15:59;9.30;91.00
36424;DHT22;22458;45.328;9.514;2023-01-15T01:18:26;9.50;90.80
36424;DHT22;22458;45.328;9.514;2023-01-15T01:20:52;9.60;90.70
36424;DHT22;22458;45.328;9.514;2023-01-15T01:23:18;9.60;90.50
36424;DHT22;22458;45.328;9.514;2023-01-15T01:25:44;9.60;90.60
36424;DHT22;22458;45.328;9.514;2023-01-15T01:28:10;9.60;90.60
36424;DHT22;22458;45.328;9.514;2023-01-15T01:30:37;9.60;90.60
36424;DHT22;22458;45.328;9.514;2023-01-15T01:33:03;9.50;90.60
36424;DHT22;22458;45.328;9.514;2023-01-15T01:35:29;9.50;90.70
36424;DHT22;22458;45.328;9.514;2023-01-15T01:37:54;9.50;90.70
36424;DHT22;22458;45.328;9.514;2023-01-15T01:40:21;9.50;90.70
36424;DHT22;22458;45.328;9.514;2023-01-15T01:42:48;9.50;90.60
36424;DHT22;22458;45.328;9.514;2023-01-15T01:45:28;9.60;90.50
36424;DHT22;22458;45.328;9.514;2023-01-15T01:48:04;9.60;90.50
36424;DHT22;22458;45.328;9.514;2023-01-15T01:50:31;9.60;90.50
36424;DHT22;22458;45.328;9.514;2023-01-15T01:53:07;9.60;90.40
36424;DHT22;22458;45.328;9.514;2023-01-15T01:55:35;9.70;90.40
36424;DHT22;22458;45.328;9.514;2023-01-15T01:58:04;9.70;90.40
36424;DHT22;22458;45.328;9.514;2023-01-15T02:00:37;9.70;90.30
36424;DHT22;22458;45.328;9.514;2023-01-15T02:03:06;9.80;90.30
36424;DHT22;22458;45.328;9.514;2023-01-15T02:05:37;9.80;90.20
36424;DHT22;22458;45.328;9.514;2023-01-15T02:08:04;9.80;90.20
36424;DHT22;22458;45.328;9.514;2023-01-15T02:10:30;9.80;90.30
36424;DHT22;22458;45.328;9.514;2023-01-15T02:12:59;9.90;90.20
36424;DHT22;22458;45.328;9.514;2023-01-15T02:15:34;9.90;90.10
36424;DHT22;22458;45.328;9.514;2023-01-15T02:18:30;9.80;90.10
36424;DHT22;22458;45.328;9.514;2023-01-15T02:21:06;9.90;90.10
36424;DHT22;22458;45.328;9.514;2023-01-15T02:29:12;9.80;90.10
36424;DHT22;22458;45.328;9.514;2023-01-15T02:31:42;9.90;90.10
36424;DHT22;22458;45.328;9.514;2023-01-15T02:34:13;9.90;90.00
36424;DHT22;22458;45.328;9.514;2023-01-15T02:36:46;9.90;90.00
36424;DHT22;22458;45.328;9.514;2023-01-15T02:39:22;9.90;90.00
36424;DHT22;22458;45.328;9.514;2023-01-15T02:41:53;9.70;90.10
36424;DHT22;22458;45.328;9.514;2023-01-15T02:44:25;9.60;90.30
36424;DHT22;22458;45.328;9.514;2023-01-15T02:46:54;9.60;90.40
36424;DHT22;22458;45.328;9.514;2023-01-15T02:49:23;9.50;90.40
36424;DHT22;22458;45.328;9.514;2023-01-15T02:51:59;9.50;90.50
36424;DHT22;22458;45.328;9.514;2023-01-15T02:54:28;9.60;90.50
36424;DHT22;22458;45.328;9.514;2023-01-15T02:56:58;9.60;90.50
36424;DHT22;22458;45.328;9.514;2023-01-15T02:59:29;9.60;90.70
36424;DHT22;22458;45.328;9.514;2023-01-15T03:02:00;9.80;90.40
36424;DHT22;22458;45.328;9.514;2023-01-15T03:04:37;9.90;90.20
36424;DHT22;22458;45.328;9.514;2023-01-15T03:07:25;10.00;90.10
36424;DHT22;22458;45.328;9.514;2023-01-15T03:09:54;10.00;90.10
36424;DHT22;22458;45.328;9.514;2023-01-15T03:12:54;10.10;90.00
36424;DHT22;22458;45.328;9.514;2023-01-15T03:15:52;10.10;89.90
36424;DHT22;22458;45.328;9.514;2023-01-15T03:21:18;10.10;89.90
36424;DHT22;22458;45.328;9.514;2023-01-15T03:23:48;10.20;89.70
36424;DHT22;22458;45.328;9.514;2023-01-15T03:26:16;10.20;90.10
36424;DHT22;22458;45.328;9.514;2023-01-15T03:28:44;10.20;89.80
36424;DHT22;22458;45.328;9.514;2023-01-15T03:31:11;10.10;89.80
36424;DHT22;22458;45.328;9.514;2023-01-15T03:33:36;10.10;89.80
36424;DHT22;22458;45.328;9.514;2023-01-15T03:36:07;10.10;89.80
36424;DHT22;22458;45.328;9.514;2023-01-15T03:38:40;10.10;89.80
36424;DHT22;22458;45.328;9.514;2023-01-15T03:50:17;9.90;90.10
36424;DHT22;22458;45.328;9.514;2023-01-15T03:55:43;9.90;90.20
36424;DHT22;22458;45.328;9.514;2023-01-15T04:00:47;9.80;90.20
36424;DHT22;22458;45.328;9.514;2023-01-15T04:03:15;9.90;90.20
36424;DHT22;22458;45.328;9.514;2023-01-15T04:05:42;10.00;90.20
36424;DHT22;22458;45.328;9.514;2023-01-15T04:08:10;10.00;90.10
36424;DHT22;22458;45.328;9.514;2023-01-15T04:10:37;10.10;90.00
36424;DHT22;22458;45.328;9.514;2023-01-15T04:13:05;10.00;90.10
36424;DHT22;22458;45.328;9.514;2023-01-15T04:15:31;9.90;90.20
36424;DHT22;22458;45.328;9.514;2023-01-15T04:17:57;9.90;90.20
36424;DHT22;22458;45.328;9.514;2023-01-15T04:20:25;9.80;90.40
36424;DHT22;22458;45.328;9.514;2023-01-15T04:22:51;9.80;90.50
36424;DHT22;22458;45.328;9.514;2023-01-15T04:25:17;9.90;90.40
36424;DHT22;22458;45.328;9.514;2023-01-15T04:27:43;10.00;90.30
36424;DHT22;22458;45.328;9.514;2023-01-15T04:30:09;10.00;90.20
36424;DHT22;22458;45.328;9.514;2023-01-15T04:32:35;10.10;90.10
36424;DHT22;22458;45.328;9.514;2023-01-15T04:35:01;10.10;90.10
36424;DHT22;22458;45.328;9.514;2023-01-15T04:37:26;10.10;90.10
36424;DHT22;22458;45.328;9.514;2023-01-15T04:39:52;10.00;90.10
36424;DHT22;22458;45.328;9.514;2023-01-15T04:42:18;10.00;90.20
36424;DHT22;22458;45.328;9.514;2023-01-15T04:45:02;9.90;90.30
36424;DHT22;22458;45.328;9.514;2023-01-15T04:47:29;9.80;90.40
36424;DHT22;22458;45.328;9.514;2023-01-15T04:49:55;9.90;90.40
36424;DHT22;22458;45.328;9.514;2023-01-15T04:52:21;9.90;90.40
36424;DHT22;22458;45.328;9.514;2023-01-15T04:54:46;10.00;90.30
36424;DHT22;22458;45.328;9.514;2023-01-15T04:57:12;10.10;90.20
36424;DHT22;22458;45.328;9.514;2023-01-15T04:59:38;10.10;90.10
36424;DHT22;22458;45.328;9.514;2023-01-15T05:02:04;10.00;90.10
36424;DHT22;22458;45.328;9.514;2023-01-15T05:04:30;10.10;90.10
36424;DHT22;22458;45.328;9.514;2023-01-15T05:06:55;10.20;90.00
36424;DHT22;22458;45.328;9.514;2023-01-15T05:09:21;10.20;89.90
36424;DHT22;22458;45.328;9.514;2023-01-15T05:11:47;10.20;90.00
36424;DHT22;22458;45.328;9.514;2023-01-15T05:14:13;10.20;90.00
36424;DHT22;22458;45.328;9.514;2023-01-15T05:16:46;10.30;89.80
36424;DHT22;22458;45.328;9.514;2023-01-15T05:19:11;10.30;89.90
36424;DHT22;22458;45.328;9.514;2023-01-15T05:21:40;10.20;90.00
36424;DHT22;22458;45.328;9.514;2023-01-15T05:24:07;10.20;90.10
36424;DHT22;22458;45.328;9.514;2023-01-15T05:26:35;10.20;90.10
36424;DHT22;22458;45.328;9.514;2023-01-15T05:29:02;10.10;90.20
36424;DHT22;22458;45.328;9.514;2023-01-15T05:31:28;10.00;90.30
36424;DHT22;22458;45.328;9.514;2023-01-15T05:33:54;10.00;90.50
36424;DHT22;22458;45.328;9.514;2023-01-15T05:36:24;10.00;90.50
36424;DHT22;22458;45.328;9.514;2023-01-15T05:38:51;10.00;90.50
36424;DHT22;22458;45.328;9.514;2023-01-15T05:41:19;9.90;90.60
36424;DHT22;22458;45.328;9.514;2023-01-15T05:44:06;9.90;90.70
36424;DHT22;22458;45.328;9.514;2023-01-15T05:46:33;9.90;90.70
36424;DHT22;22458;45.328;9.514;2023-01-15T05:49:06;9.90;90.60
36424;DHT22;22458;45.328;9.514;2023-01-15T05:51:36;9.90;90.60
36424;DHT22;22458;45.328;9.514;2023-01-15T05:54:03;9.80;90.70
36424;DHT22;22458;45.328;9.514;2023-01-15T05:56:29;9.80;90.70
36424;DHT22;22458;45.328;9.514;2023-01-15T05:58:55;9.90;90.70
36424;DHT22;22458;45.328;9.514;2023-01-15T06:01:21;9.80;90.70
36424;DHT22;22458;45.328;9.514;2023-01-15T06:03:47;9.80;90.70
36424;DHT22;22458;45.328;9.514;2023-01-15T06:06:15;9.80;90.70
36424;DHT22;22458;45.328;9.514;2023-01-15T06:08:45;9.70;90.80
36424;DHT22;22458;45.328;9.514;2023-01-15T06:11:11;9.50;90.90
36424;DHT22;22458;45.328;9.514;2023-01-15T06:13:38;9.50;91.10
36424;DHT22;22458;45.328;9.514;2023-01-15T06:16:05;9.40;91.10
36424;DHT22;22458;45.328;9.514;2023-01-15T06:18:31;9.40;91.20
36424;DHT22;22458;45.328;9.514;2023-01-15T06:21:03;9.40;91.30
36424;DHT22;22458;45.328;9.514;2023-01-15T06:23:29;9.50;91.30
36424;DHT22;22458;45.328;9.514;2023-01-15T06:25:59;9.40;91.20
36424;DHT22;22458;45.328;9.514;2023-01-15T06:28:26;9.40;91.20
36424;DHT22;22458;45.328;9.514;2023-01-15T06:30:52;9.30;91.30
36424;DHT22;22458;45.328;9.514;2023-01-15T06:33:17;9.30;91.40
36424;DHT22;22458;45.328;9.514;2023-01-15T06:35:43;9.40;91.40
36424;DHT22;22458;45.328;9.514;2023-01-15T06:38:09;9.40;91.30
36424;DHT22;22458;45.328;9.514;2023-01-15T06:40:35;9.40;91.40
36424;DHT22;22458;45.328;9.514;2023-01-15T06:43:01;9.30;91.40
36424;DHT22;22458;45.328;9.514;2023-01-15T06:45:45;9.20;91.50
36424;DHT22;22458;45.328;9.514;2023-01-15T06:48:29;9.00;91.70
36424;DHT22;22458;45.328;9.514;2023-01-15T06:50:55;9.00;91.90
36424;DHT22;22458;45.328;9.514;2023-01-15T06:53:22;9.00;92.00
36424;DHT22;22458;45.328;9.514;2023-01-15T06:55:48;9.00;92.00
36424;DHT22;22458;45.328;9.514;2023-01-15T06:58:14;9.00;91.90
36424;DHT22;22458;45.328;9.514;2023-01-15T07:00:39;8.90;92.00
36424;DHT22;22458;45.328;9.514;2023-01-15T07:03:09;8.90;92.10
36424;DHT22;22458;45.328;9.514;2023-01-15T07:05:37;8.80;92.30
36424;DHT22;22458;45.328;9.514;2023-01-15T07:08:03;8.90;92.40
36424;DHT22;22458;45.328;9.514;2023-01-15T07:10:29;8.90;92.30
36424;DHT22;22458;45.328;9.514;2023-01-15T07:12:55;8.90;92.30
36424;DHT22;22458;45.328;9.514;2023-01-15T07:15:21;9.00;92.50
36424;DHT22;22458;45.328;9.514;2023-01-15T07:17:46;9.00;92.20
36424;DHT22;22458;45.328;9.514;2023-01-15T07:20:12;9.00;92.20
36424;DHT22;22458;45.328;9.514;2023-01-15T07:22:38;8.90;92.20
36424;DHT22;22458;45.328;9.514;2023-01-15T07:25:04;8.90;92.40
36424;DHT22;22458;45.328;9.514;2023-01-15T07:27:30;9.00;92.40
36424;DHT22;22458;45.328;9.514;2023-01-15T07:29:56;9.00;92.30
36424;DHT22;22458;45.328;9.514;2023-01-15T07:32:21;9.10;92.20
36424;DHT22;22458;45.328;9.514;2023-01-15T07:34:47;9.00;92.30
36424;DHT22;22458;45.328;9.514;2023-01-15T07:37:13;9.00;92.30
36424;DHT22;22458;45.328;9.514;2023-01-15T07:39:38;9.00;92.40
36424;DHT22;22458;45.328;9.514;2023-01-15T07:42:04;8.90;92.50
36424;DHT22;22458;45.328;9.514;2023-01-15T07:45:02;9.00;92.50
36424;DHT22;22458;45.328;9.514;2023-01-15T07:47:47;9.00;92.40
36424;DHT22;22458;45.328;9.514;2023-01-15T07:50:31;9.00;92.40
36424;DHT22;22458;45.328;9.514;2023-01-15T07:52:56;9.10;92.40
36424;DHT22;22458;45.328;9.514;2023-01-15T07:55:22;9.10;92.30
36424;DHT22;22458;45.328;9.514;2023-01-15T07:57:48;9.20;92.30
36424;DHT22;22458;45.328;9.514;2023-01-15T08:00:19;9.20;92.20
36424;DHT22;22458;45.328;9.514;2023-01-15T08:02:45;9.30;92.20
36424;DHT22;22458;45.328;9.514;2023-01-15T08:05:14;9.30;92.40
36424;DHT22;22458;45.328;9.514;2023-01-15T08:07:41;9.30;92.10
36424;DHT22;22458;45.328;9.514;2023-01-15T08:10:09;9.30;92.20
36424;DHT22;22458;45.328;9.514;2023-01-15T08:12:35;9.20;92.20
36424;DHT22;22458;45.328;9.514;2023-01-15T08:15:20;9.20;92.30
36424;DHT22;22458;45.328;9.514;2023-01-15T08:17:47;9.20;92.30
36424;DHT22;22458;45.328;9.514;2023-01-15T08:20:16;9.20;92.30
36424;DHT22;22458;45.328;9.514;2023-01-15T08:22:42;9.30;92.40
36424;DHT22;22458;45.328;9.514;2023-01-15T08:25:14;9.30;92.30
36424;DHT22;22458;45.328;9.514;2023-01-15T08:27:41;9.40;92.30
36424;DHT22;22458;45.328;9.514;2023-01-15T08:30:10;9.40;92.30
36424;DHT22;22458;45.328;9.514;2023-01-15T08:32:36;9.30;92.30
36424;DHT22;22458;45.328;9.514;2023-01-15T08:35:02;9.10;92.30
36424;DHT22;22458;45.328;9.514;2023-01-15T08:37:27;9.00;92.60
36424;DHT22;22458;45.328;9.514;2023-01-15T08:39:53;9.00;92.70
36424;DHT22;22458;45.328;9.514;2023-01-15T08:42:19;9.00;92.80
36424;DHT22;22458;45.328;9.514;2023-01-15T08:44:46;9.00;92.80
36424;DHT22;22458;45.328;9.514;2023-01-15T08:47:12;9.10;92.80
36424;DHT22;22458;45.328;9.514;2023-01-15T08:49:37;9.20;92.80
36424;DHT22;22458;45.328;9.514;2023-01-15T08:52:03;9.20;92.70
36424;DHT22;22458;45.328;9.514;2023-01-15T08:54:29;9.20;92.60
36424;DHT22;22458;45.328;9.514;2023-01-15T08:56:55;9.30;92.70
36424;DHT22;22458;45.328;9.514;2023-01-15T08:59:21;9.30;92.60
36424;DHT22;22458;45.328;9.514;2023-01-15T09:01:47;9.40;92.60
36424;DHT22;22458;45.328;9.514;2023-01-15T09:04:14;9.50;92.60
36424;DHT22;22458;45.328;9.514;2023-01-15T09:06:41;9.50;92.50
36424;DHT22;22458;45.328;9.514;2023-01-15T09:09:07;9.60;92.40
36424;DHT22;22458;45.328;9.514;2023-01-15T09:11:33;9.60;92.40
36424;DHT22;22458;45.328;9.514;2023-01-15T09:13:59;9.60;92.30
36424;DHT22;22458;45.328;9.514;2023-01-15T09:16:25;9.60;92.30
36424;DHT22;22458;45.328;9.514;2023-01-15T09:18:56;9.60;92.40
36424;DHT22;22458;45.328;9.514;2023-01-15T09:21:22;9.60;92.40
36424;DHT22;22458;45.328;9.514;2023-01-15T09:23:48;9.70;92.40
36424;DHT22;22458;45.328;9.514;2023-01-15T09:26:33;9.70;92.30
36424;DHT22;22458;45.328;9.514;2023-01-15T09:29:00;9.70;92.20
36424;DHT22;22458;45.328;9.514;2023-01-15T09:31:26;9.70;92.20
36424;DHT22;22458;45.328;9.514;2023-01-15T09:33:52;9.60;92.20
36424;DHT22;22458;45.328;9.514;2023-01-15T09:36:28;9.60;92.20
36424;DHT22;22458;45.328;9.514;2023-01-15T09:38:55;9.50;92.30
36424;DHT22;22458;45.328;9.514;2023-01-15T09:41:23;9.40;92.60
36424;DHT22;22458;45.328;9.514;2023-01-15T09:47:23;9.30;92.40
36424;DHT22;22458;45.328;9.514;2023-01-15T09:50:02;9.30;92.50
36424;DHT22;22458;45.328;9.514;2023-01-15T09:55:13;9.20;92.50
36424;DHT22;22458;45.328;9.514;2023-01-15T09:57:40;9.10;92.60
36424;DHT22;22458;45.328;9.514;2023-01-15T10:00:14;9.10;92.70
36424;DHT22;22458;45.328;9.514;2023-01-15T10:02:46;9.10;92.70
36424;DHT22;22458;45.328;9.514;2023-01-15T10:05:42;9.10;92.70
36424;DHT22;22458;45.328;9.514;2023-01-15T10:08:16;9.20;92.70
36424;DHT22;22458;45.328;9.514;2023-01-15T10:10:54;9.20;92.70
36424;DHT22;22458;45.328;9.514;2023-01-15T10:13:27;9.30;92.60
36424;DHT22;22458;45.328;9.514;2023-01-15T10:15:55;9.30;92.60
36424;DHT22;22458;45.328;9.514;2023-01-15T10:18:23;9.30;92.50
36424;DHT22;22458;45.328;9.514;2023-01-15T10:24:05;9.20;92.50
36424;DHT22;22458;45.328;9.514;2023-01-15T10:26:37;9.00;92.70
36424;DHT22;22458;45.328;9.514;2023-01-15T10:29:08;9.00;92.80
36424;DHT22;22458;45.328;9.514;2023-01-15T10:31:47;9.10;92.80
36424;DHT22;22458;45.328;9.514;2023-01-15T10:37:12;9.20;92.60
36424;DHT22;22458;45.328;9.514;2023-01-15T10:47:30;9.50;92.50
36424;DHT22;22458;45.328;9.514;2023-01-15T10:50:01;9.50;92.40
36424;DHT22;22458;45.328;9.514;2023-01-15T10:52:35;9.60;92.30
36424;DHT22;22458;45.328;9.514;2023-01-15T10:55:25;9.60;92.30
36424;DHT22;22458;45.328;9.514;2023-01-15T11:00:33;9.70;92.20
36424;DHT22;22458;45.328;9.514;2023-01-15T11:03:14;9.70;92.20
36424;DHT22;22458;45.328;9.514;2023-01-15T11:05:42;9.70;92.20
36424;DHT22;22458;45.328;9.514;2023-01-15T11:08:20;9.70;92.20
36424;DHT22;22458;45.328;9.514;2023-01-15T11:10:48;9.70;92.20
36424;DHT22;22458;45.328;9.514;2023-01-15T11:13:17;9.60;92.30
36424;DHT22;22458;45.328;9.514;2023-01-15T11:16:03;9.60;92.40
36424;DHT22;22458;45.328;9.514;2023-01-15T11:18:47;9.50;92.40
36424;DHT22;22458;45.328;9.514;2023-01-15T11:21:32;9.50;92.50
36424;DHT22;22458;45.328;9.514;2023-01-15T11:24:14;9.60;92.50
36424;DHT22;22458;45.328;9.514;2023-01-15T11:26:41;9.60;92.50
36424;DHT22;22458;45.328;9.514;2023-01-15T11:29:14;9.60;92.40
36424;DHT22;22458;45.328;9.514;2023-01-15T11:31:40;9.70;92.40
36424;DHT22;22458;45.328;9.514;2023-01-15T11:34:18;9.60;92.30
36424;DHT22;22458;45.328;9.514;2023-01-15T11:36:46;9.60;92.50
36424;DHT22;22458;45.328;9.514;2023-01-15T11:39:25;9.60;92.50
36424;DHT22;22458;45.328;9.514;2023-01-15T11:42:00;9.50;92.60
36424;DHT22;22458;45.328;9.514;2023-01-15T11:44:56;9.50;92.60
36424;DHT22;22458;45.328;9.514;2023-01-15T11:47:53;9.60;92.60
36424;DHT22;22458;45.328;9.514;2023-01-15T11:50:51;9.60;92.50
36424;DHT22;22458;45.328;9.514;2023-01-15T11:53:21;9.60;92.60
36424;DHT22;22458;45.328;9.514;2023-01-15T11:55:53;9.60;92.60
36424;DHT22;22458;45.328;9.514;2023-01-15T11:58:20;9.60;92.60
36424;DHT22;22458;45.328;9.514;2023-01-15T12:00:49;9.70;92.50
36424;DHT22;22458;45.328;9.514;2023-01-15T12:03:19;9.80;92.50
36424;DHT22;22458;45.328;9.514;2023-01-15T12:05:45;9.90;92.40
36424;DHT22;22458;45.328;9.514;2023-01-15T12:22:45;10.00;92.20
36424;DHT22;22458;45.328;9.514;2023-01-15T12:28:14;10.10;92.20
36424;DHT22;22458;45.328;9.514;2023-01-15T12:30:57;10.10;92.10
36424;DHT22;22458;45.328;9.514;2023-01-15T12:33:48;10.20;92.10
36424;DHT22;22458;45.328;9.514;2023-01-15T12:36:37;10.30;92.00
36424;DHT22;22458;45.328;9.514;2023-01-15T12:39:16;10.30;92.10
36424;DHT22;22458;45.328;9.514;2023-01-15T12:41:46;10.40;92.00
36424;DHT22;22458;45.328;9.514;2023-01-15T12:47:43;10.50;91.80
36424;DHT22;22458;45.328;9.514;2023-01-15T12:55:59;10.40;91.90
36424;DHT22;22458;45.328;9.514;2023-01-15T12:58:37;10.40;91.90
36424;DHT22;22458;45.328;9.514;2023-01-15T13:01:30;10.30;91.90
36424;DHT22;22458;45.328;9.514;2023-01-15T13:06:39;10.20;92.00
36424;DHT22;22458;45.328;9.514;2023-01-15T13:11:57;10.20;92.00
36424;DHT22;22458;45.328;9.514;2023-01-15T13:14:23;10.10;92.10
36424;DHT22;22458;45.328;9.514;2023-01-15T13:17:02;10.20;92.10
36424;DHT22;22458;45.328;9.514;2023-01-15T13:22:21;10.30;92.00
36424;DHT22;22458;45.328;9.514;2023-01-15T13:25:19;10.30;91.90
36424;DHT22;22458;45.328;9.514;2023-01-15T13:33:44;10.20;92.10
36424;DHT22;22458;45.328;9.514;2023-01-15T13:36:24;10.10;92.20
36424;DHT22;22458;45.328;9.514;2023-01-15T13:38:54;10.10;92.30
36424;DHT22;22458;45.328;9.514;2023-01-15T13:41:25;10.10;92.30
36424;DHT22;22458;45.328;9.514;2023-01-15T13:44:20;10.20;92.40
36424;DHT22;22458;45.328;9.514;2023-01-15T13:46:57;10.20;92.20
36424;DHT22;22458;45.328;9.514;2023-01-15T13:49:40;10.30;92.30
36424;DHT22;22458;45.328;9.514;2023-01-15T13:52:25;10.30;92.30
36424;DHT22;22458;45.328;9.514;2023-01-15T13:54:52;10.30;92.20
36424;DHT22;22458;45.328;9.514;2023-01-15T13:57:40;10.30;92.30
36424;DHT22;22458;45.328;9.514;2023-01-15T14:00:58;10.40;92.30
36424;DHT22;22458;45.328;9.514;2023-01-15T14:02:56;10.40;92.30
36424;DHT22;22458;45.328;9.514;2023-01-15T14:07:51;10.50;92.20
36424;DHT22;22458;45.328;9.514;2023-01-15T14:34:35;10.70;92.00
36424;DHT22;22458;45.328;9.514;2023-01-15T14:40:01;10.60;92.30
36424;DHT22;22458;45.328;9.514;2023-01-15T14:42:34;10.60;92.30
36424;DHT22;22458;45.328;9.514;2023-01-15T14:45:25;10.60;92.30
36424;DHT22;22458;45.328;9.514;2023-01-15T14:47:57;10.70;92.30
36424;DHT22;22458;45.328;9.514;2023-01-15T14:55:47;10.60;92.40
36424;DHT22;22458;45.328;9.514;2023-01-15T15:01:28;10.50;92.60
36424;DHT22;22458;45.328;9.514;2023-01-15T15:04:28;10.50;92.60
36424;DHT22;22458;45.328;9.514;2023-01-15T15:07:00;10.50;92.60
36424;DHT22;22458;45.328;9.514;2023-01-15T15:26:06;10.50;92.90
36424;DHT22;22458;45.328;9.514;2023-01-15T15:28:41;10.50;92.80
36424;DHT22;22458;45.328;9.514;2023-01-15T15:31:08;10.50;92.80
36424;DHT22;22458;45.328;9.514;2023-01-15T15:33:40;10.50;92.70
36424;DHT22;22458;45.328;9.514;2023-01-15T15:36:07;10.60;92.60
36424;DHT22;22458;45.328;9.514;2023-01-15T15:38:33;10.50;92.60
36424;DHT22;22458;45.328;9.514;2023-01-15T15:41:01;10.30;92.80
36424;DHT22;22458;45.328;9.514;2023-01-15T15:43:49;10.40;92.90
36424;DHT22;22458;45.328;9.514;2023-01-15T15:46:49;10.50;92.90
36424;DHT22;22458;45.328;9.514;2023-01-15T15:49:40;10.40;92.90
36424;DHT22;22458;45.328;9.514;2023-01-15T15:52:33;10.50;92.90
36424;DHT22;22458;45.328;9.514;2023-01-15T15:55:01;10.40;92.70
36424;DHT22;22458;45.328;9.514;2023-01-15T15:57:31;10.20;93.00
36424;DHT22;22458;45.328;9.514;2023-01-15T15:59:58;10.20;93.10
36424;DHT22;22458;45.328;9.514;2023-01-15T16:02:31;10.30;93.00
36424;DHT22;22458;45.328;9.514;2023-01-15T16:07:47;10.40;93.00
36424;DHT22;22458;45.328;9.514;2023-01-15T16:12:47;10.40;93.00
36424;DHT22;22458;45.328;9.514;2023-01-15T16:15:17;10.40;92.90
36424;DHT22;22458;45.328;9.514;2023-01-15T16:17:44;10.40;92.90
36424;DHT22;22458;45.328;9.514;2023-01-15T16:20:18;10.50;92.90
36424;DHT22;22458;45.328;9.514;2023-01-15T16:23:04;10.40;92.90
36424;DHT22;22458;45.328;9.514;2023-01-15T16:27:56;10.50;92.90
36424;DHT22;22458;45.328;9.514;2023-01-15T16:30:23;10.60;92.80
36424;DHT22;22458;45.328;9.514;2023-01-15T16:32:51;10.70;92.60
36424;DHT22;22458;45.328;9.514;2023-01-15T16:35:20;10.80;92.50
36424;DHT22;22458;45.328;9.514;2023-01-15T16:37:55;10.80;92.60
36424;DHT22;22458;45.328;9.514;2023-01-15T16:43:23;11.00;92.20
36424;DHT22;22458;45.328;9.514;2023-01-15T16:46:02;11.10;92.00
36424;DHT22;22458;45.328;9.514;2023-01-15T16:48:35;11.10;91.90
36424;DHT22;22458;45.328;9.514;2023-01-15T16:51:34;11.20;91.90
36424;DHT22;22458;45.328;9.514;2023-01-15T16:54:04;11.20;91.80
36424;DHT22;22458;45.328;9.514;2023-01-15T16:59:00;11.30;91.80
36424;DHT22;22458;45.328;9.514;2023-01-15T17:01:37;11.30;91.70
36424;DHT22;22458;45.328;9.514;2023-01-15T17:07:18;11.30;91.70
36424;DHT22;22458;45.328;9.514;2023-01-15T17:09:51;11.30;91.70
36424;DHT22;22458;45.328;9.514;2023-01-15T17:12:30;11.30;91.70
36424;DHT22;22458;45.328;9.514;2023-01-15T17:17:49;11.30;91.70
36424;DHT22;22458;45.328;9.514;2023-01-15T17:20:17;11.40;91.70
36424;DHT22;22458;45.328;9.514;2023-01-15T17:22:45;11.30;91.60
36424;DHT22;22458;45.328;9.514;2023-01-15T17:25:25;11.30;91.70
36424;DHT22;22458;45.328;9.514;2023-01-15T17:27:52;11.30;91.70
36424;DHT22;22458;45.328;9.514;2023-01-15T17:30:19;11.30;91.70
36424;DHT22;22458;45.328;9.514;2023-01-15T17:32:44;11.30;91.70
36424;DHT22;22458;45.328;9.514;2023-01-15T17:35:21;11.20;91.80
36424;DHT22;22458;45.328;9.514;2023-01-15T17:37:47;11.10;91.90
36424;DHT22;22458;45.328;9.514;2023-01-15T17:40:13;11.20;91.90
36424;DHT22;22458;45.328;9.514;2023-01-15T17:42:39;11.20;91.90
36424;DHT22;22458;45.328;9.514;2023-01-15T17:45:05;11.20;91.80
36424;DHT22;22458;45.328;9.514;2023-01-15T17:47:31;11.30;91.90
36424;DHT22;22458;45.328;9.514;2023-01-15T17:49:57;11.30;91.80
36424;DHT22;22458;45.328;9.514;2023-01-15T17:52:22;11.30;91.80
36424;DHT22;22458;45.328;9.514;2023-01-15T17:54:48;11.30;91.90
36424;DHT22;22458;45.328;9.514;2023-01-15T17:57:32;11.20;91.90
36424;DHT22;22458;45.328;9.514;2023-01-15T18:00:17;11.20;92.00
36424;DHT22;22458;45.328;9.514;2023-01-15T18:03:02;11.20;92.10
36424;DHT22;22458;45.328;9.514;2023-01-15T18:05:47;11.20;92.10
36424;DHT22;22458;45.328;9.514;2023-01-15T18:08:15;11.20;92.10
36424;DHT22;22458;45.328;9.514;2023-01-15T18:10:43;11.00;92.30
36424;DHT22;22458;45.328;9.514;2023-01-15T18:13:09;10.80;92.60
36424;DHT22;22458;45.328;9.514;2023-01-15T18:15:37;10.60;92.90
36424;DHT22;22458;45.328;9.514;2023-01-15T18:18:03;10.40;93.20
36424;DHT22;22458;45.328;9.514;2023-01-15T18:23:20;10.40;93.30
36424;DHT22;22458;45.328;9.514;2023-01-15T18:25:46;10.40;93.30
36424;DHT22;22458;45.328;9.514;2023-01-15T18:28:12;10.30;93.30
36424;DHT22;22458;45.328;9.514;2023-01-15T18:30:39;10.20;93.40
36424;DHT22;22458;45.328;9.514;2023-01-15T18:33:04;10.10;93.70
36424;DHT22;22458;45.328;9.514;2023-01-15T18:35:30;10.10;93.80
36424;DHT22;22458;45.328;9.514;2023-01-15T18:37:56;10.10;93.70
36424;DHT22;22458;45.328;9.514;2023-01-15T18:40:22;10.10;93.80
36424;DHT22;22458;45.328;9.514;2023-01-15T18:42:53;10.00;93.90
36424;DHT22;22458;45.328;9.514;2023-01-15T18:45:37;10.00;93.90
36424;DHT22;22458;45.328;9.514;2023-01-15T18:48:22;10.00;93.90
36424;DHT22;22458;45.328;9.514;2023-01-15T18:50:47;9.80;94.00